Řízení letového provozu České republiky
Letiste: LKLN Aktualizace: 22.07.2019 14:25:26  UTC
 METAR LKLN 22.07. 14:30 ...
METAR LKLN 221430Z AUTO 22008KT 9999 BKN073 BKN140 27/12 Q1023=